sensor_id;sensor_type;location;lat;lon;timestamp;pressure;altitude;pressure_sealevel;temperature;humidity
67842;BME280;54642;59.126;37.876;2023-04-09T00:01:23;101147.53;;;9.23;39.86
67842;BME280;54642;59.126;37.876;2023-04-09T00:03:49;101145.84;;;9.25;39.87
67842;BME280;54642;59.126;37.876;2023-04-09T00:06:15;101132.78;;;9.18;40.13
67842;BME280;54642;59.126;37.876;2023-04-09T00:08:41;101103.31;;;9.09;40.13
67842;BME280;54642;59.126;37.876;2023-04-09T00:11:06;101094.44;;;8.95;39.97
67842;BME280;54642;59.126;37.876;2023-04-09T00:13:32;101132.94;;;9.27;40.04
67842;BME280;54642;59.126;37.876;2023-04-09T00:15:58;101147.75;;;9.37;39.96
67842;BME280;54642;59.126;37.876;2023-04-09T00:18:24;101148.63;;;9.36;40.14
67842;BME280;54642;59.126;37.876;2023-04-09T00:20:50;101139.75;;;9.22;40.42
67842;BME280;54642;59.126;37.876;2023-04-09T00:23:16;101146.00;;;9.34;40.40
67842;BME280;54642;59.126;37.876;2023-04-09T00:25:42;101159.03;;;9.41;40.13
67842;BME280;54642;59.126;37.876;2023-04-09T00:28:08;101144.28;;;9.35;40.19
67842;BME280;54642;59.126;37.876;2023-04-09T00:30:34;101146.94;;;9.38;40.16
67842;BME280;54642;59.126;37.876;2023-04-09T00:33:00;101042.34;;;8.73;40.36
67842;BME280;54642;59.126;37.876;2023-04-09T00:35:26;101129.34;;;9.19;40.31
67842;BME280;54642;59.126;37.876;2023-04-09T00:37:52;101152.78;;;9.28;40.47
67842;BME280;54642;59.126;37.876;2023-04-09T00:40:18;101167.41;;;9.26;40.61
67842;BME280;54642;59.126;37.876;2023-04-09T00:42:43;101156.06;;;9.19;40.64
67842;BME280;54642;59.126;37.876;2023-04-09T00:45:10;101092.44;;;8.82;40.70
67842;BME280;54642;59.126;37.876;2023-04-09T00:47:36;101157.84;;;9.22;40.79
67842;BME280;54642;59.126;37.876;2023-04-09T00:50:02;101119.38;;;8.91;40.82
67842;BME280;54642;59.126;37.876;2023-04-09T00:52:28;101134.88;;;8.91;41.04
67842;BME280;54642;59.126;37.876;2023-04-09T00:55:01;101123.72;;;8.94;41.07
67842;BME280;54642;59.126;37.876;2023-04-09T00:57:29;101117.34;;;8.75;41.25
67842;BME280;54642;59.126;37.876;2023-04-09T00:59:55;101153.84;;;8.92;41.42
67842;BME280;54642;59.126;37.876;2023-04-09T01:02:21;101128.59;;;8.78;41.34
67842;BME280;54642;59.126;37.876;2023-04-09T01:04:47;101143.34;;;8.84;41.44
67842;BME280;54642;59.126;37.876;2023-04-09T01:07:30;101172.03;;;8.96;41.51
67842;BME280;54642;59.126;37.876;2023-04-09T01:10:09;101111.06;;;8.62;41.52
67842;BME280;54642;59.126;37.876;2023-04-09T01:13:11;101166.00;;;8.97;41.78
67842;BME280;54642;59.126;37.876;2023-04-09T01:15:45;101140.69;;;8.81;41.69
67842;BME280;54642;59.126;37.876;2023-04-09T01:18:22;101134.53;;;8.73;41.71
67842;BME280;54642;59.126;37.876;2023-04-09T01:20:59;101153.66;;;8.83;41.69
67842;BME280;54642;59.126;37.876;2023-04-09T01:23:42;101127.50;;;8.66;41.92
67842;BME280;54642;59.126;37.876;2023-04-09T01:28:58;101098.31;;;8.30;42.28
67842;BME280;54642;59.126;37.876;2023-04-09T01:31:36;101049.63;;;8.08;42.34
67842;BME280;54642;59.126;37.876;2023-04-09T01:34:04;101081.81;;;8.24;42.22
67842;BME280;54642;59.126;37.876;2023-04-09T01:36:31;101154.06;;;8.60;42.35
67842;BME280;54642;59.126;37.876;2023-04-09T01:39:02;101131.31;;;8.44;42.52
67842;BME280;54642;59.126;37.876;2023-04-09T01:41:30;101134.97;;;8.52;42.62
67842;BME280;54642;59.126;37.876;2023-04-09T01:43:59;101148.09;;;8.63;42.51
67842;BME280;54642;59.126;37.876;2023-04-09T01:46:28;101145.41;;;8.58;42.49
67842;BME280;54642;59.126;37.876;2023-04-09T01:48:55;101138.38;;;8.51;42.50
67842;BME280;54642;59.126;37.876;2023-04-09T01:51:21;101134.50;;;8.33;42.52
67842;BME280;54642;59.126;37.876;2023-04-09T01:53:48;101144.09;;;8.37;42.80
67842;BME280;54642;59.126;37.876;2023-04-09T01:56:14;101083.78;;;7.94;42.90
67842;BME280;54642;59.126;37.876;2023-04-09T01:58:40;101126.25;;;8.09;43.15
67842;BME280;54642;59.126;37.876;2023-04-09T02:01:13;101142.03;;;8.23;43.18
67842;BME280;54642;59.126;37.876;2023-04-09T02:03:55;101108.03;;;8.02;42.87
67842;BME280;54642;59.126;37.876;2023-04-09T02:06:33;101140.06;;;8.11;42.98
67842;BME280;54642;59.126;37.876;2023-04-09T02:09:06;101148.78;;;8.16;43.09
67842;BME280;54642;59.126;37.876;2023-04-09T02:11:36;101153.06;;;8.15;43.26
67842;BME280;54642;59.126;37.876;2023-04-09T02:14:03;101124.13;;;7.91;43.39
67842;BME280;54642;59.126;37.876;2023-04-09T02:16:30;101105.00;;;7.82;43.38
67842;BME280;54642;59.126;37.876;2023-04-09T02:18:57;101126.72;;;7.91;43.47
67842;BME280;54642;59.126;37.876;2023-04-09T02:21:26;101137.97;;;7.94;43.45
67842;BME280;54642;59.126;37.876;2023-04-09T02:23:54;101116.03;;;7.75;43.65
67842;BME280;54642;59.126;37.876;2023-04-09T02:26:23;100992.84;;;6.92;43.75
67842;BME280;54642;59.126;37.876;2023-04-09T02:28:49;101113.47;;;7.77;43.70
67842;BME280;54642;59.126;37.876;2023-04-09T02:31:16;101147.41;;;7.94;43.95
67842;BME280;54642;59.126;37.876;2023-04-09T02:33:42;101144.69;;;7.88;43.60
67842;BME280;54642;59.126;37.876;2023-04-09T02:36:11;101117.41;;;7.61;44.16
67842;BME280;54642;59.126;37.876;2023-04-09T02:38:40;101153.09;;;7.79;44.34
67842;BME280;54642;59.126;37.876;2023-04-09T02:41:08;101113.06;;;7.60;44.18
67842;BME280;54642;59.126;37.876;2023-04-09T02:43:34;101141.00;;;7.78;44.11
67842;BME280;54642;59.126;37.876;2023-04-09T02:46:00;101146.16;;;7.78;44.19
67842;BME280;54642;59.126;37.876;2023-04-09T02:48:26;101126.16;;;7.68;44.09
67842;BME280;54642;59.126;37.876;2023-04-09T02:50:53;101151.44;;;7.82;44.16
67842;BME280;54642;59.126;37.876;2023-04-09T02:53:19;101131.72;;;7.85;44.25
67842;BME280;54642;59.126;37.876;2023-04-09T02:55:48;101145.78;;;7.97;44.24
67842;BME280;54642;59.126;37.876;2023-04-09T02:58:14;101141.47;;;7.96;44.00
67842;BME280;54642;59.126;37.876;2023-04-09T03:00:40;101157.03;;;8.01;44.33
67842;BME280;54642;59.126;37.876;2023-04-09T03:03:06;101160.41;;;7.97;44.24
67842;BME280;54642;59.126;37.876;2023-04-09T03:05:32;101169.69;;;7.90;44.55
67842;BME280;54642;59.126;37.876;2023-04-09T03:07:58;101166.94;;;7.82;44.17
67842;BME280;54642;59.126;37.876;2023-04-09T03:10:24;101156.66;;;7.84;44.56
67842;BME280;54642;59.126;37.876;2023-04-09T03:12:50;101137.47;;;7.73;44.56
67842;BME280;54642;59.126;37.876;2023-04-09T03:15:16;101166.22;;;7.88;44.59
67842;BME280;54642;59.126;37.876;2023-04-09T03:17:42;101144.38;;;7.74;44.83
67842;BME280;54642;59.126;37.876;2023-04-09T03:20:08;101141.81;;;7.75;44.86
67842;BME280;54642;59.126;37.876;2023-04-09T03:22:37;101175.50;;;7.81;44.92
67842;BME280;54642;59.126;37.876;2023-04-09T03:25:08;101100.81;;;7.50;45.00
67842;BME280;54642;59.126;37.876;2023-04-09T03:27:35;101176.63;;;7.91;44.84
67842;BME280;54642;59.126;37.876;2023-04-09T03:30:02;101076.34;;;7.34;44.97
67842;BME280;54642;59.126;37.876;2023-04-09T03:32:36;101149.69;;;7.80;45.12
67842;BME280;54642;59.126;37.876;2023-04-09T03:35:04;101119.03;;;7.57;44.92
67842;BME280;54642;59.126;37.876;2023-04-09T03:37:31;101123.59;;;7.68;45.02
67842;BME280;54642;59.126;37.876;2023-04-09T03:39:57;101160.31;;;7.92;45.06
67842;BME280;54642;59.126;37.876;2023-04-09T03:42:26;101079.41;;;7.54;44.91
67842;BME280;54642;59.126;37.876;2023-04-09T03:44:54;101164.09;;;8.07;44.77
67842;BME280;54642;59.126;37.876;2023-04-09T03:47:33;101164.03;;;8.05;44.90
67842;BME280;54642;59.126;37.876;2023-04-09T03:49:59;101162.53;;;8.15;45.06
67842;BME280;54642;59.126;37.876;2023-04-09T03:52:29;101147.81;;;8.11;44.69
67842;BME280;54642;59.126;37.876;2023-04-09T03:55:07;101130.34;;;8.00;44.53
67842;BME280;54642;59.126;37.876;2023-04-09T03:57:33;101136.38;;;8.01;44.50
67842;BME280;54642;59.126;37.876;2023-04-09T04:00:00;101138.38;;;8.13;44.54
67842;BME280;54642;59.126;37.876;2023-04-09T04:02:28;101158.63;;;8.32;44.47
67842;BME280;54642;59.126;37.876;2023-04-09T04:05:02;101135.22;;;8.26;44.52
67842;BME280;54642;59.126;37.876;2023-04-09T04:07:33;101176.22;;;8.49;44.29
67842;BME280;54642;59.126;37.876;2023-04-09T04:10:08;101140.91;;;8.48;44.29
67842;BME280;54642;59.126;37.876;2023-04-09T04:12:34;101152.31;;;8.59;44.04
67842;BME280;54642;59.126;37.876;2023-04-09T04:15:05;101135.78;;;8.51;43.92
67842;BME280;54642;59.126;37.876;2023-04-09T04:17:36;101162.97;;;8.74;43.66
67842;BME280;54642;59.126;37.876;2023-04-09T04:20:07;101161.16;;;8.70;43.65
67842;BME280;54642;59.126;37.876;2023-04-09T04:22:43;101159.63;;;8.78;43.83
67842;BME280;54642;59.126;37.876;2023-04-09T04:25:09;101160.72;;;8.91;43.58
67842;BME280;54642;59.126;37.876;2023-04-09T04:27:35;101166.13;;;9.04;43.27
67842;BME280;54642;59.126;37.876;2023-04-09T04:30:01;101177.25;;;8.98;43.34
67842;BME280;54642;59.126;37.876;2023-04-09T04:32:49;101169.91;;;9.23;43.30
67842;BME280;54642;59.126;37.876;2023-04-09T04:35:15;101177.13;;;9.41;42.90
67842;BME280;54642;59.126;37.876;2023-04-09T04:37:41;101167.84;;;9.50;42.93
67842;BME280;54642;59.126;37.876;2023-04-09T04:40:08;101161.88;;;9.54;42.79
67842;BME280;54642;59.126;37.876;2023-04-09T04:42:38;101168.97;;;9.66;42.76
67842;BME280;54642;59.126;37.876;2023-04-09T04:45:09;101159.56;;;9.71;42.71
67842;BME280;54642;59.126;37.876;2023-04-09T04:47:46;101169.19;;;9.79;42.69
67842;BME280;54642;59.126;37.876;2023-04-09T04:50:13;101165.69;;;9.77;42.69
67842;BME280;54642;59.126;37.876;2023-04-09T04:52:52;101167.53;;;9.84;42.58
67842;BME280;54642;59.126;37.876;2023-04-09T04:55:21;101162.47;;;9.91;42.53
67842;BME280;54642;59.126;37.876;2023-04-09T04:57:49;101081.78;;;9.62;42.34
67842;BME280;54642;59.126;37.876;2023-04-09T05:00:18;101123.53;;;9.85;42.38
67842;BME280;54642;59.126;37.876;2023-04-09T05:02:44;101159.53;;;10.28;42.30
67842;BME280;54642;59.126;37.876;2023-04-09T05:05:32;101147.09;;;10.02;42.17
67842;BME280;54642;59.126;37.876;2023-04-09T05:07:59;101159.69;;;9.79;42.22
67842;BME280;54642;59.126;37.876;2023-04-09T05:10:25;101174.00;;;9.57;42.57
67842;BME280;54642;59.126;37.876;2023-04-09T05:12:51;101168.25;;;9.26;42.86
67842;BME280;54642;59.126;37.876;2023-04-09T05:15:27;101167.34;;;9.23;42.62
67842;BME280;54642;59.126;37.876;2023-04-09T05:17:53;101144.75;;;9.12;42.91
67842;BME280;54642;59.126;37.876;2023-04-09T05:20:19;101159.72;;;9.30;42.74
67842;BME280;54642;59.126;37.876;2023-04-09T05:22:59;101151.31;;;9.42;42.78
67842;BME280;54642;59.126;37.876;2023-04-09T05:25:30;101122.53;;;9.24;42.68
67842;BME280;54642;59.126;37.876;2023-04-09T05:27:58;101164.44;;;9.54;42.39
67842;BME280;54642;59.126;37.876;2023-04-09T05:30:26;101122.47;;;9.21;42.18
67842;BME280;54642;59.126;37.876;2023-04-09T05:32:55;101168.78;;;9.56;41.97
67842;BME280;54642;59.126;37.876;2023-04-09T05:35:27;101166.19;;;9.54;42.29
67842;BME280;54642;59.126;37.876;2023-04-09T05:37:56;101168.13;;;9.69;42.18
67842;BME280;54642;59.126;37.876;2023-04-09T05:40:23;101163.88;;;9.72;41.88
67842;BME280;54642;59.126;37.876;2023-04-09T05:42:51;101169.38;;;9.91;41.82
67842;BME280;54642;59.126;37.876;2023-04-09T05:45:25;101166.75;;;9.89;41.82
67842;BME280;54642;59.126;37.876;2023-04-09T05:47:53;101178.03;;;9.93;42.10
67842;BME280;54642;59.126;37.876;2023-04-09T05:50:21;101176.03;;;10.32;41.54
67842;BME280;54642;59.126;37.876;2023-04-09T05:52:51;101180.97;;;10.79;41.45
67842;BME280;54642;59.126;37.876;2023-04-09T05:55:17;101114.44;;;10.79;41.27
67842;BME280;54642;59.126;37.876;2023-04-09T05:57:47;101173.75;;;11.30;41.15
67842;BME280;54642;59.126;37.876;2023-04-09T06:00:14;101150.56;;;11.50;41.10
67842;BME280;54642;59.126;37.876;2023-04-09T06:02:43;101165.38;;;11.60;40.88
67842;BME280;54642;59.126;37.876;2023-04-09T06:05:09;101148.22;;;11.77;40.68
67842;BME280;54642;59.126;37.876;2023-04-09T06:07:35;101114.47;;;11.79;40.31
67842;BME280;54642;59.126;37.876;2023-04-09T06:10:02;101171.97;;;12.28;39.87
67842;BME280;54642;59.126;37.876;2023-04-09T06:12:28;101171.13;;;12.31;39.61
67842;BME280;54642;59.126;37.876;2023-04-09T06:14:54;101177.22;;;12.39;39.64
67842;BME280;54642;59.126;37.876;2023-04-09T06:17:20;101182.38;;;12.30;40.01
67842;BME280;54642;59.126;37.876;2023-04-09T06:19:46;101178.91;;;12.31;39.26
67842;BME280;54642;59.126;37.876;2023-04-09T06:22:12;101181.59;;;12.46;39.85
67842;BME280;54642;59.126;37.876;2023-04-09T06:24:38;101178.22;;;12.67;39.67
67842;BME280;54642;59.126;37.876;2023-04-09T06:27:04;101182.59;;;12.73;39.50
67842;BME280;54642;59.126;37.876;2023-04-09T06:29:30;101181.75;;;12.77;39.59
67842;BME280;54642;59.126;37.876;2023-04-09T06:31:56;101129.69;;;12.63;38.94
67842;BME280;54642;59.126;37.876;2023-04-09T06:34:22;101187.91;;;13.08;38.67
67842;BME280;54642;59.126;37.876;2023-04-09T06:36:48;101177.47;;;12.91;38.52
67842;BME280;54642;59.126;37.876;2023-04-09T06:39:14;101145.22;;;12.49;38.38
67842;BME280;54642;59.126;37.876;2023-04-09T06:41:40;101178.16;;;12.52;38.85
67842;BME280;54642;59.126;37.876;2023-04-09T06:44:21;101154.78;;;12.55;39.46
67842;BME280;54642;59.126;37.876;2023-04-09T06:46:49;101181.84;;;13.08;38.65
67842;BME280;54642;59.126;37.876;2023-04-09T06:49:15;101188.75;;;13.07;38.43
67842;BME280;54642;59.126;37.876;2023-04-09T06:51:40;101178.38;;;13.09;38.83
67842;BME280;54642;59.126;37.876;2023-04-09T06:54:06;101185.41;;;13.31;38.79
67842;BME280;54642;59.126;37.876;2023-04-09T06:56:33;101191.50;;;13.52;38.28
67842;BME280;54642;59.126;37.876;2023-04-09T06:58:59;101199.25;;;13.27;37.90
67842;BME280;54642;59.126;37.876;2023-04-09T07:01:26;101182.66;;;12.88;38.72
67842;BME280;54642;59.126;37.876;2023-04-09T07:03:52;101199.22;;;13.21;38.14
67842;BME280;54642;59.126;37.876;2023-04-09T07:06:18;101193.22;;;13.48;38.66
67842;BME280;54642;59.126;37.876;2023-04-09T07:08:44;101184.56;;;13.79;37.78
67842;BME280;54642;59.126;37.876;2023-04-09T07:11:10;101197.59;;;13.96;37.49
67842;BME280;54642;59.126;37.876;2023-04-09T07:13:36;101195.00;;;13.96;37.57
67842;BME280;54642;59.126;37.876;2023-04-09T07:16:02;101173.25;;;14.15;37.27
67842;BME280;54642;59.126;37.876;2023-04-09T07:18:29;101177.59;;;14.13;37.01
67842;BME280;54642;59.126;37.876;2023-04-09T07:20:55;101193.19;;;14.42;36.81
67842;BME280;54642;59.126;37.876;2023-04-09T07:23:21;101184.50;;;14.34;36.96
67842;BME280;54642;59.126;37.876;2023-04-09T07:25:47;101193.19;;;14.47;36.75
67842;BME280;54642;59.126;37.876;2023-04-09T07:28:13;101187.13;;;14.33;36.38
67842;BME280;54642;59.126;37.876;2023-04-09T07:30:39;101185.31;;;14.62;36.63
67842;BME280;54642;59.126;37.876;2023-04-09T07:33:05;101174.88;;;14.64;36.14
67842;BME280;54642;59.126;37.876;2023-04-09T07:35:31;101180.94;;;14.74;36.37
67842;BME280;54642;59.126;37.876;2023-04-09T07:37:59;101171.31;;;14.80;36.36
67842;BME280;54642;59.126;37.876;2023-04-09T07:40:25;101173.03;;;14.89;36.27
67842;BME280;54642;59.126;37.876;2023-04-09T07:42:51;101129.66;;;14.62;36.48
67842;BME280;54642;59.126;37.876;2023-04-09T07:45:18;101171.97;;;15.24;36.06
67842;BME280;54642;59.126;37.876;2023-04-09T07:47:44;101164.94;;;15.34;35.37
67842;BME280;54642;59.126;37.876;2023-04-09T07:50:10;101130.19;;;15.24;35.63
67842;BME280;54642;59.126;37.876;2023-04-09T07:52:36;101172.78;;;15.34;35.70
67842;BME280;54642;59.126;37.876;2023-04-09T07:55:03;101174.47;;;15.38;35.40
67842;BME280;54642;59.126;37.876;2023-04-09T07:57:32;101181.44;;;15.40;35.15
67842;BME280;54642;59.126;37.876;2023-04-09T07:59:58;101176.97;;;15.53;35.19
67842;BME280;54642;59.126;37.876;2023-04-09T08:02:24;101184.84;;;15.49;35.21
67842;BME280;54642;59.126;37.876;2023-04-09T08:04:51;101183.31;;;15.18;35.63
67842;BME280;54642;59.126;37.876;2023-04-09T08:07:17;101178.19;;;15.06;35.28
67842;BME280;54642;59.126;37.876;2023-04-09T08:09:43;101187.66;;;15.24;35.27
67842;BME280;54642;59.126;37.876;2023-04-09T08:12:09;101118.22;;;14.86;35.39
67842;BME280;54642;59.126;37.876;2023-04-09T08:14:35;101191.28;;;14.95;35.75
67842;BME280;54642;59.126;37.876;2023-04-09T08:17:01;101172.22;;;14.79;35.58
67842;BME280;54642;59.126;37.876;2023-04-09T08:19:27;101186.88;;;15.05;35.77
67842;BME280;54642;59.126;37.876;2023-04-09T08:21:53;101183.34;;;15.15;35.70
67842;BME280;54642;59.126;37.876;2023-04-09T08:24:19;101176.28;;;15.28;35.20
67842;BME280;54642;59.126;37.876;2023-04-09T08:26:45;101086.81;;;15.04;34.71
67842;BME280;54642;59.126;37.876;2023-04-09T08:29:12;101181.38;;;15.45;35.07
67842;BME280;54642;59.126;37.876;2023-04-09T08:31:38;101172.69;;;15.41;35.50
67842;BME280;54642;59.126;37.876;2023-04-09T08:34:05;101172.44;;;15.80;35.04
67842;BME280;54642;59.126;37.876;2023-04-09T08:36:31;101174.19;;;15.81;35.04
67842;BME280;54642;59.126;37.876;2023-04-09T08:38:59;101127.94;;;15.89;34.94
67842;BME280;54642;59.126;37.876;2023-04-09T08:41:26;101160.81;;;16.13;34.44
67842;BME280;54642;59.126;37.876;2023-04-09T08:43:56;101172.44;;;15.83;34.50
67842;BME280;54642;59.126;37.876;2023-04-09T08:46:23;101175.91;;;15.85;34.84
67842;BME280;54642;59.126;37.876;2023-04-09T08:48:50;101091.59;;;15.58;34.65
67842;BME280;54642;59.126;37.876;2023-04-09T08:51:22;101161.56;;;16.26;34.96
67842;BME280;54642;59.126;37.876;2023-04-09T08:53:51;101150.84;;;16.48;34.56
67842;BME280;54642;59.126;37.876;2023-04-09T08:56:19;101171.53;;;16.66;34.33
67842;BME280;54642;59.126;37.876;2023-04-09T08:58:48;101152.78;;;16.29;33.90
67842;BME280;54642;59.126;37.876;2023-04-09T09:01:22;101154.88;;;15.96;34.33
67842;BME280;54642;59.126;37.876;2023-04-09T09:06:21;101170.44;;;16.10;33.67
67842;BME280;54642;59.126;37.876;2023-04-09T09:09:02;101105.09;;;16.07;33.65
67842;BME280;54642;59.126;37.876;2023-04-09T09:11:28;101158.84;;;16.34;33.41
67842;BME280;54642;59.126;37.876;2023-04-09T09:14:02;101119.88;;;16.08;33.48
67842;BME280;54642;59.126;37.876;2023-04-09T09:16:29;101150.06;;;16.38;33.13
67842;BME280;54642;59.126;37.876;2023-04-09T09:18:55;101153.47;;;16.45;32.80
67842;BME280;54642;59.126;37.876;2023-04-09T09:21:22;101137.69;;;16.52;32.89
67842;BME280;54642;59.126;37.876;2023-04-09T09:23:48;101145.38;;;16.66;32.65
67842;BME280;54642;59.126;37.876;2023-04-09T09:26:16;101142.09;;;16.49;32.74
67842;BME280;54642;59.126;37.876;2023-04-09T09:28:44;101150.97;;;16.35;32.93
67842;BME280;54642;59.126;37.876;2023-04-09T09:31:14;101128.81;;;15.88;33.87
67842;BME280;54642;59.126;37.876;2023-04-09T09:33:41;101110.84;;;15.48;33.80
67842;BME280;54642;59.126;37.876;2023-04-09T09:36:07;101147.38;;;15.54;34.02
67842;BME280;54642;59.126;37.876;2023-04-09T09:38:53;101159.44;;;15.72;33.81
67842;BME280;54642;59.126;37.876;2023-04-09T09:41:20;101141.00;;;15.88;33.34
67842;BME280;54642;59.126;37.876;2023-04-09T09:43:46;101142.53;;;16.12;33.68
67842;BME280;54642;59.126;37.876;2023-04-09T09:46:14;101140.66;;;16.23;33.54
67842;BME280;54642;59.126;37.876;2023-04-09T09:48:40;101149.19;;;16.41;33.03
67842;BME280;54642;59.126;37.876;2023-04-09T09:51:11;101145.47;;;16.60;32.75
67842;BME280;54642;59.126;37.876;2023-04-09T09:53:39;101141.94;;;16.61;32.74
67842;BME280;54642;59.126;37.876;2023-04-09T09:56:18;101145.34;;;16.69;33.15
67842;BME280;54642;59.126;37.876;2023-04-09T09:59:05;101150.44;;;16.80;33.04
67842;BME280;54642;59.126;37.876;2023-04-09T10:01:32;101146.97;;;16.78;32.63
67842;BME280;54642;59.126;37.876;2023-04-09T10:03:59;101136.56;;;16.73;32.91
67842;BME280;54642;59.126;37.876;2023-04-09T10:06:27;101148.84;;;16.67;32.73
67842;BME280;54642;59.126;37.876;2023-04-09T10:08:56;101149.06;;;16.51;32.47
67842;BME280;54642;59.126;37.876;2023-04-09T10:11:23;101112.69;;;16.28;32.75
67842;BME280;54642;59.126;37.876;2023-04-09T10:13:51;101154.16;;;16.61;32.42
67842;BME280;54642;59.126;37.876;2023-04-09T10:16:19;101152.41;;;16.61;32.09
67842;BME280;54642;59.126;37.876;2023-04-09T10:18:47;101144.56;;;16.59;32.46
67842;BME280;54642;59.126;37.876;2023-04-09T10:23:51;101136.22;;;17.01;32.30
67842;BME280;54642;59.126;37.876;2023-04-09T10:26:18;101126.78;;;16.89;31.74
67842;BME280;54642;59.126;37.876;2023-04-09T10:28:44;101157.22;;;16.96;31.72
67842;BME280;54642;59.126;37.876;2023-04-09T10:31:10;101135.72;;;16.70;31.89
67842;BME280;54642;59.126;37.876;2023-04-09T10:33:37;101159.25;;;16.71;31.90
67842;BME280;54642;59.126;37.876;2023-04-09T10:36:13;101154.94;;;16.69;32.15
67842;BME280;54642;59.126;37.876;2023-04-09T10:38:46;101125.50;;;16.51;31.96
67842;BME280;54642;59.126;37.876;2023-04-09T10:41:20;101115.19;;;16.37;32.10
67842;BME280;54642;59.126;37.876;2023-04-09T10:43:47;101152.34;;;16.67;31.92
67842;BME280;54642;59.126;37.876;2023-04-09T10:46:33;101151.66;;;16.53;32.15
67842;BME280;54642;59.126;37.876;2023-04-09T10:49:22;101136.09;;;16.41;32.08
67842;BME280;54642;59.126;37.876;2023-04-09T10:52:03;101154.53;;;16.31;32.13
67842;BME280;54642;59.126;37.876;2023-04-09T10:59:42;101074.94;;;15.70;31.96
67842;BME280;54642;59.126;37.876;2023-04-09T11:07:44;101142.53;;;16.09;32.19
67842;BME280;54642;59.126;37.876;2023-04-09T11:10:11;101156.22;;;16.32;31.97
67842;BME280;54642;59.126;37.876;2023-04-09T11:12:37;101105.97;;;16.06;31.92
67842;BME280;54642;59.126;37.876;2023-04-09T11:15:03;101156.09;;;16.45;31.63
67842;BME280;54642;59.126;37.876;2023-04-09T11:17:34;101158.09;;;16.24;31.70
67842;BME280;54642;59.126;37.876;2023-04-09T11:20:02;101113.19;;;15.79;31.97
67842;BME280;54642;59.126;37.876;2023-04-09T11:22:28;101137.53;;;15.86;32.29
67842;BME280;54642;59.126;37.876;2023-04-09T11:24:54;101145.47;;;15.75;32.45
67842;BME280;54642;59.126;37.876;2023-04-09T11:27:21;101156.69;;;15.86;32.05
67842;BME280;54642;59.126;37.876;2023-04-09T11:29:47;101149.69;;;15.91;32.31
67842;BME280;54642;59.126;37.876;2023-04-09T11:32:13;101152.31;;;15.90;31.92
67842;BME280;54642;59.126;37.876;2023-04-09T11:34:39;101158.25;;;16.04;32.24
67842;BME280;54642;59.126;37.876;2023-04-09T11:37:05;101141.91;;;15.88;32.19
67842;BME280;54642;59.126;37.876;2023-04-09T11:39:36;101139.41;;;15.74;32.52
67842;BME280;54642;59.126;37.876;2023-04-09T11:42:03;101160.28;;;15.73;32.83
67842;BME280;54642;59.126;37.876;2023-04-09T11:44:29;101117.06;;;15.36;32.33
67842;BME280;54642;59.126;37.876;2023-04-09T11:46:57;101145.66;;;15.50;32.48
67842;BME280;54642;59.126;37.876;2023-04-09T11:49:23;101149.00;;;15.69;32.49
67842;BME280;54642;59.126;37.876;2023-04-09T11:51:49;101144.56;;;15.80;32.14
67842;BME280;54642;59.126;37.876;2023-04-09T11:54:15;101147.22;;;15.77;32.36
67842;BME280;54642;59.126;37.876;2023-04-09T11:56:41;101130.69;;;15.72;32.42
67842;BME280;54642;59.126;37.876;2023-04-09T11:59:07;101120.19;;;15.80;32.28
67842;BME280;54642;59.126;37.876;2023-04-09T12:01:34;101142.66;;;15.99;32.02
67842;BME280;54642;59.126;37.876;2023-04-09T12:04:00;101128.66;;;16.04;32.13
67842;BME280;54642;59.126;37.876;2023-04-09T12:06:27;101119.81;;;16.17;31.95
67842;BME280;54642;59.126;37.876;2023-04-09T12:11:19;101138.63;;;16.47;31.67
67842;BME280;54642;59.126;37.876;2023-04-09T12:13:45;101115.47;;;16.11;31.61
67842;BME280;54642;59.126;37.876;2023-04-09T12:16:12;101119.09;;;16.01;31.58
67842;BME280;54642;59.126;37.876;2023-04-09T12:18:39;101122.69;;;15.91;31.96
67842;BME280;54642;59.126;37.876;2023-04-09T12:21:05;101126.97;;;15.96;31.87
67842;BME280;54642;59.126;37.876;2023-04-09T12:23:31;101134.81;;;15.98;31.94
67842;BME280;54642;59.126;37.876;2023-04-09T12:25:58;101139.97;;;16.06;31.60
67842;BME280;54642;59.126;37.876;2023-04-09T12:28:25;101122.47;;;16.09;31.88
67842;BME280;54642;59.126;37.876;2023-04-09T12:30:53;101131.09;;;16.20;31.36
67842;BME280;54642;59.126;37.876;2023-04-09T12:33:21;101138.84;;;16.28;31.59
67842;BME280;54642;59.126;37.876;2023-04-09T12:35:46;101138.00;;;16.28;31.54
67842;BME280;54642;59.126;37.876;2023-04-09T12:38:13;101122.31;;;16.28;31.25
67842;BME280;54642;59.126;37.876;2023-04-09T12:40:39;101124.00;;;16.30;31.40
67842;BME280;54642;59.126;37.876;2023-04-09T12:43:05;101131.81;;;16.35;31.21
67842;BME280;54642;59.126;37.876;2023-04-09T12:45:31;101124.78;;;16.38;31.21
67842;BME280;54642;59.126;37.876;2023-04-09T12:47:57;101117.91;;;16.31;31.08
67842;BME280;54642;59.126;37.876;2023-04-09T12:50:23;101123.28;;;16.16;31.33
67842;BME280;54642;59.126;37.876;2023-04-09T12:52:49;101121.66;;;16.04;31.73
67842;BME280;54642;59.126;37.876;2023-04-09T12:55:16;101120.94;;;15.90;31.60
67842;BME280;54642;59.126;37.876;2023-04-09T12:57:43;101127.81;;;15.98;31.52
67842;BME280;54642;59.126;37.876;2023-04-09T13:00:11;101118.28;;;15.94;31.29
67842;BME280;54642;59.126;37.876;2023-04-09T13:02:38;101128.66;;;16.00;31.32
67842;BME280;54642;59.126;37.876;2023-04-09T13:05:04;101129.50;;;16.04;31.29
67842;BME280;54642;59.126;37.876;2023-04-09T13:07:31;101119.09;;;16.01;31.29
67842;BME280;54642;59.126;37.876;2023-04-09T13:09:58;101134.69;;;16.12;31.49
67842;BME280;54642;59.126;37.876;2023-04-09T13:12:24;101127.00;;;15.93;31.23